sensor_id;sensor_type;location;lat;lon;timestamp;pressure;altitude;pressure_sealevel;temperature;humidity
72921;BME280;61064;51.654;5.476;2023-09-19T00:00:26;100774.34;;;15.84;89.04
72921;BME280;61064;51.654;5.476;2023-09-19T00:02:56;100781.44;;;15.88;89.13
72921;BME280;61064;51.654;5.476;2023-09-19T00:05:23;100785.03;;;15.87;89.42
72921;BME280;61064;51.654;5.476;2023-09-19T00:07:52;100793.13;;;15.84;89.10
72921;BME280;61064;51.654;5.476;2023-09-19T00:10:22;100792.28;;;15.80;88.99
72921;BME280;61064;51.654;5.476;2023-09-19T00:12:55;100791.47;;;15.75;89.24
72921;BME280;61064;51.654;5.476;2023-09-19T00:15:27;100796.91;;;15.70;89.35
72921;BME280;61064;51.654;5.476;2023-09-19T00:17:56;100808.56;;;15.68;89.35
72921;BME280;61064;51.654;5.476;2023-09-19T00:20:21;100812.19;;;15.65;89.38
72921;BME280;61064;51.654;5.476;2023-09-19T00:22:50;100813.13;;;15.61;89.58
72921;BME280;61064;51.654;5.476;2023-09-19T00:25:19;100820.34;;;15.59;89.31
72921;BME280;61064;51.654;5.476;2023-09-19T00:27:45;100829.28;;;15.57;89.57
72921;BME280;61064;51.654;5.476;2023-09-19T00:30:13;100825.78;;;15.55;89.69
72921;BME280;61064;51.654;5.476;2023-09-19T00:32:47;100817.78;;;15.49;89.66
72921;BME280;61064;51.654;5.476;2023-09-19T00:35:15;100819.50;;;15.50;89.41
72921;BME280;61064;51.654;5.476;2023-09-19T00:37:41;100824.03;;;15.48;89.61
72921;BME280;61064;51.654;5.476;2023-09-19T00:40:07;100820.53;;;15.43;89.39
72921;BME280;61064;51.654;5.476;2023-09-19T00:42:48;100827.66;;;15.44;89.35
72921;BME280;61064;51.654;5.476;2023-09-19T00:45:15;100835.69;;;15.44;89.36
72921;BME280;61064;51.654;5.476;2023-09-19T00:47:44;100832.19;;;15.40;89.39
72921;BME280;61064;51.654;5.476;2023-09-19T00:50:11;100839.31;;;15.41;89.54
72921;BME280;61064;51.654;5.476;2023-09-19T00:52:40;100838.50;;;15.36;89.48
72921;BME280;61064;51.654;5.476;2023-09-19T00:55:11;100841.16;;;15.36;89.58
72921;BME280;61064;51.654;5.476;2023-09-19T00:57:39;100851.00;;;15.37;89.66
72921;BME280;61064;51.654;5.476;2023-09-19T01:00:07;100846.53;;;15.37;89.61
72921;BME280;61064;51.654;5.476;2023-09-19T01:02:34;100851.91;;;15.36;89.57
72921;BME280;61064;51.654;5.476;2023-09-19T01:05:00;100864.41;;;15.37;89.40
72921;BME280;61064;51.654;5.476;2023-09-19T01:07:27;100867.03;;;15.38;89.38
72921;BME280;61064;51.654;5.476;2023-09-19T01:09:56;100863.47;;;15.38;89.38
72921;BME280;61064;51.654;5.476;2023-09-19T01:15:14;100866.19;;;15.36;89.35
72921;BME280;61064;51.654;5.476;2023-09-19T01:17:46;100850.16;;;15.32;89.07
72921;BME280;61064;51.654;5.476;2023-09-19T01:20:26;100866.19;;;15.36;88.95
72921;BME280;61064;51.654;5.476;2023-09-19T01:23:05;100869.78;;;15.32;88.91
72921;BME280;61064;51.654;5.476;2023-09-19T01:25:49;100868.94;;;15.30;88.76
72921;BME280;61064;51.654;5.476;2023-09-19T01:28:39;100870.72;;;15.30;88.54
72921;BME280;61064;51.654;5.476;2023-09-19T01:31:10;100877.94;;;15.25;88.51
72921;BME280;61064;51.654;5.476;2023-09-19T01:34:02;100879.75;;;15.21;88.60
72921;BME280;61064;51.654;5.476;2023-09-19T01:36:34;100883.38;;;15.17;88.38
72921;BME280;61064;51.654;5.476;2023-09-19T01:39:05;100878.03;;;15.16;88.19
72921;BME280;61064;51.654;5.476;2023-09-19T01:44:23;100881.78;;;15.04;87.80
72921;BME280;61064;51.654;5.476;2023-09-19T01:46:49;100874.66;;;15.02;87.70
72921;BME280;61064;51.654;5.476;2023-09-19T01:49:33;100888.03;;;15.03;87.38
72921;BME280;61064;51.654;5.476;2023-09-19T01:52:09;100889.81;;;15.03;87.42
72921;BME280;61064;51.654;5.476;2023-09-19T01:54:46;100885.41;;;14.98;87.13
72921;BME280;61064;51.654;5.476;2023-09-19T01:57:20;100892.56;;;14.98;87.10
72921;BME280;61064;51.654;5.476;2023-09-19T02:00:08;100897.94;;;14.95;87.21
72921;BME280;61064;51.654;5.476;2023-09-19T02:02:38;100888.16;;;14.91;86.93
72921;BME280;61064;51.654;5.476;2023-09-19T02:05:05;100882.84;;;14.86;86.88
72921;BME280;61064;51.654;5.476;2023-09-19T02:07:31;100885.53;;;14.85;86.76
72921;BME280;61064;51.654;5.476;2023-09-19T02:09:57;100884.66;;;14.83;86.75
72921;BME280;61064;51.654;5.476;2023-09-19T02:12:24;100894.47;;;14.82;86.66
72921;BME280;61064;51.654;5.476;2023-09-19T02:14:50;100888.28;;;14.77;86.46
72921;BME280;61064;51.654;5.476;2023-09-19T02:17:15;100876.78;;;14.71;86.27
72921;BME280;61064;51.654;5.476;2023-09-19T02:19:41;100889.22;;;14.75;86.25
72921;BME280;61064;51.654;5.476;2023-09-19T02:22:07;100890.13;;;14.74;86.24
72921;BME280;61064;51.654;5.476;2023-09-19T02:24:33;100889.28;;;14.70;86.16
72921;BME280;61064;51.654;5.476;2023-09-19T02:26:58;100887.50;;;14.69;86.06
72921;BME280;61064;51.654;5.476;2023-09-19T02:29:27;100894.63;;;14.67;86.13
72921;BME280;61064;51.654;5.476;2023-09-19T02:31:55;100900.94;;;14.63;85.90
72921;BME280;61064;51.654;5.476;2023-09-19T02:34:22;100898.25;;;14.63;85.93
72921;BME280;61064;51.654;5.476;2023-09-19T02:36:48;100899.19;;;14.59;85.98
72921;BME280;61064;51.654;5.476;2023-09-19T02:39:13;100912.59;;;14.56;85.91
72921;BME280;61064;51.654;5.476;2023-09-19T02:41:38;100908.13;;;14.55;85.82
72921;BME280;61064;51.654;5.476;2023-09-19T02:44:04;100900.16;;;14.52;85.57
72921;BME280;61064;51.654;5.476;2023-09-19T02:46:33;100903.72;;;14.49;85.55
72921;BME280;61064;51.654;5.476;2023-09-19T02:48:58;100904.66;;;14.48;85.36
72921;BME280;61064;51.654;5.476;2023-09-19T02:51:24;100903.78;;;14.45;85.50
72921;BME280;61064;51.654;5.476;2023-09-19T02:53:50;100904.69;;;14.41;85.24
72921;BME280;61064;51.654;5.476;2023-09-19T02:56:17;100910.94;;;14.40;85.33
72921;BME280;61064;51.654;5.476;2023-09-19T02:58:43;100908.28;;;14.38;85.23
72921;BME280;61064;51.654;5.476;2023-09-19T03:01:11;100909.19;;;14.36;85.08
72921;BME280;61064;51.654;5.476;2023-09-19T03:03:37;100907.41;;;14.33;85.00
72921;BME280;61064;51.654;5.476;2023-09-19T03:06:05;100910.09;;;14.32;84.94
72921;BME280;61064;51.654;5.476;2023-09-19T03:08:31;100908.28;;;14.34;84.95
72921;BME280;61064;51.654;5.476;2023-09-19T03:10:56;100912.78;;;14.29;84.73
72921;BME280;61064;51.654;5.476;2023-09-19T03:13:21;100923.53;;;14.26;84.75
72921;BME280;61064;51.654;5.476;2023-09-19T03:15:47;100913.72;;;14.23;85.01
72921;BME280;61064;51.654;5.476;2023-09-19T03:18:15;100908.38;;;14.22;84.69
72921;BME280;61064;51.654;5.476;2023-09-19T03:20:41;100910.16;;;14.21;84.59
72921;BME280;61064;51.654;5.476;2023-09-19T03:23:06;100911.09;;;14.19;84.52
72921;BME280;61064;51.654;5.476;2023-09-19T03:25:34;100912.88;;;14.16;84.54
72921;BME280;61064;51.654;5.476;2023-09-19T03:27:59;100918.25;;;14.13;84.54
72921;BME280;61064;51.654;5.476;2023-09-19T03:30:25;100918.25;;;14.13;84.34
72921;BME280;61064;51.654;5.476;2023-09-19T03:32:51;100919.16;;;14.11;84.35
72921;BME280;61064;51.654;5.476;2023-09-19T03:35:17;100916.53;;;14.08;84.14
72921;BME280;61064;51.654;5.476;2023-09-19T03:37:43;100920.09;;;14.08;84.06
72921;BME280;61064;51.654;5.476;2023-09-19T03:40:10;100911.16;;;14.06;83.95
72921;BME280;61064;51.654;5.476;2023-09-19T03:42:38;100917.41;;;14.08;83.94
72921;BME280;61064;51.654;5.476;2023-09-19T03:45:04;100903.16;;;14.08;83.71
72921;BME280;61064;51.654;5.476;2023-09-19T03:47:31;100904.94;;;14.07;83.75
72921;BME280;61064;51.654;5.476;2023-09-19T03:49:57;100898.69;;;14.05;83.56
72921;BME280;61064;51.654;5.476;2023-09-19T03:52:25;100911.16;;;14.08;83.58
72921;BME280;61064;51.654;5.476;2023-09-19T03:54:54;100892.44;;;14.05;83.31
72921;BME280;61064;51.654;5.476;2023-09-19T03:57:20;100897.78;;;14.06;83.50
72921;BME280;61064;51.654;5.476;2023-09-19T03:59:46;100891.59;;;14.01;83.23
72921;BME280;61064;51.654;5.476;2023-09-19T04:02:12;100904.00;;;14.10;83.10
72921;BME280;61064;51.654;5.476;2023-09-19T04:04:56;100889.75;;;14.09;83.38
72921;BME280;61064;51.654;5.476;2023-09-19T04:07:21;100889.75;;;14.09;83.34
72921;BME280;61064;51.654;5.476;2023-09-19T04:09:48;100894.22;;;14.09;83.38
72921;BME280;61064;51.654;5.476;2023-09-19T04:12:14;100897.75;;;14.11;83.50
72921;BME280;61064;51.654;5.476;2023-09-19T04:14:42;100900.44;;;14.12;83.51
72921;BME280;61064;51.654;5.476;2023-09-19T04:17:07;100904.88;;;14.10;83.49
72921;BME280;61064;51.654;5.476;2023-09-19T04:19:32;100912.91;;;14.13;83.66
72921;BME280;61064;51.654;5.476;2023-09-19T04:21:58;100917.34;;;14.16;83.53
72921;BME280;61064;51.654;5.476;2023-09-19T04:24:23;100903.13;;;14.09;83.65
72921;BME280;61064;51.654;5.476;2023-09-19T04:26:48;100907.56;;;14.12;83.85
72921;BME280;61064;51.654;5.476;2023-09-19T04:29:14;100930.72;;;14.18;83.79
72921;BME280;61064;51.654;5.476;2023-09-19T04:31:40;100936.91;;;14.23;83.78
72921;BME280;61064;51.654;5.476;2023-09-19T04:34:06;100936.03;;;14.22;83.81
72921;BME280;61064;51.654;5.476;2023-09-19T04:36:33;100932.47;;;14.22;83.76
72921;BME280;61064;51.654;5.476;2023-09-19T04:38:58;100944.94;;;14.24;83.95
72921;BME280;61064;51.654;5.476;2023-09-19T04:41:23;100939.59;;;14.23;83.96
72921;BME280;61064;51.654;5.476;2023-09-19T04:44:05;100936.97;;;14.18;83.99
72921;BME280;61064;51.654;5.476;2023-09-19T04:46:30;100960.97;;;14.30;84.00
72921;BME280;61064;51.654;5.476;2023-09-19T04:48:56;100969.84;;;14.34;84.22
72921;BME280;61064;51.654;5.476;2023-09-19T04:51:22;100959.13;;;14.34;84.02
72921;BME280;61064;51.654;5.476;2023-09-19T04:53:47;100964.53;;;14.37;84.18
72921;BME280;61064;51.654;5.476;2023-09-19T04:56:13;100962.69;;;14.39;84.21
72921;BME280;61064;51.654;5.476;2023-09-19T04:58:41;100963.59;;;14.35;84.36
72921;BME280;61064;51.654;5.476;2023-09-19T05:01:07;100974.28;;;14.41;84.38
72921;BME280;61064;51.654;5.476;2023-09-19T05:03:36;100961.81;;;14.35;84.36
72921;BME280;61064;51.654;5.476;2023-09-19T05:06:02;100965.41;;;14.37;84.40
72921;BME280;61064;51.654;5.476;2023-09-19T05:08:37;100959.13;;;14.35;84.48
72921;BME280;61064;51.654;5.476;2023-09-19T05:11:06;100974.31;;;14.39;84.53
72921;BME280;61064;51.654;5.476;2023-09-19T05:13:31;100971.63;;;14.38;84.76
72921;BME280;61064;51.654;5.476;2023-09-19T05:16:00;100973.41;;;14.40;84.53
72921;BME280;61064;51.654;5.476;2023-09-19T05:18:27;100975.19;;;14.40;84.77
72921;BME280;61064;51.654;5.476;2023-09-19T05:20:52;100987.69;;;14.42;84.84
72921;BME280;61064;51.654;5.476;2023-09-19T05:23:21;100977.88;;;14.38;84.74
72921;BME280;61064;51.654;5.476;2023-09-19T05:25:46;100976.97;;;14.39;84.95
72921;BME280;61064;51.654;5.476;2023-09-19T05:28:12;100979.66;;;14.41;85.05
72921;BME280;61064;51.654;5.476;2023-09-19T05:30:40;100976.97;;;14.39;85.06
72921;BME280;61064;51.654;5.476;2023-09-19T05:33:08;100967.19;;;14.37;85.09
72921;BME280;61064;51.654;5.476;2023-09-19T05:35:33;100981.44;;;14.40;85.19
72921;BME280;61064;51.654;5.476;2023-09-19T05:37:59;100985.91;;;14.40;85.37
72921;BME280;61064;51.654;5.476;2023-09-19T05:40:25;100981.44;;;14.39;85.43
72921;BME280;61064;51.654;5.476;2023-09-19T05:42:51;100998.38;;;14.42;85.38
72921;BME280;61064;51.654;5.476;2023-09-19T05:45:16;100991.25;;;14.41;85.62
72921;BME280;61064;51.654;5.476;2023-09-19T05:47:51;100995.72;;;14.42;85.70
72921;BME280;61064;51.654;5.476;2023-09-19T05:50:21;100976.09;;;14.40;85.54
72921;BME280;61064;51.654;5.476;2023-09-19T05:52:53;100977.88;;;14.38;85.87
72921;BME280;61064;51.654;5.476;2023-09-19T05:55:21;100982.28;;;14.45;85.89
72921;BME280;61064;51.654;5.476;2023-09-19T05:57:51;100982.28;;;14.45;86.00
72921;BME280;61064;51.654;5.476;2023-09-19T06:00:20;100982.28;;;14.47;86.18
72921;BME280;61064;51.654;5.476;2023-09-19T06:02:53;100987.63;;;14.48;86.15
72921;BME280;61064;51.654;5.476;2023-09-19T06:05:19;100980.50;;;14.47;86.11
72921;BME280;61064;51.654;5.476;2023-09-19T06:07:45;100991.19;;;14.50;86.25
72921;BME280;61064;51.654;5.476;2023-09-19T06:10:12;100984.03;;;14.49;86.58
72921;BME280;61064;51.654;5.476;2023-09-19T06:12:44;100978.69;;;14.49;86.51
72921;BME280;61064;51.654;5.476;2023-09-19T06:15:11;100988.50;;;14.53;86.47
72921;BME280;61064;51.654;5.476;2023-09-19T06:17:50;100989.38;;;14.54;86.57
72921;BME280;61064;51.654;5.476;2023-09-19T06:20:16;100984.03;;;14.51;87.01
72921;BME280;61064;51.654;5.476;2023-09-19T06:22:42;100992.03;;;14.55;86.79
72921;BME280;61064;51.654;5.476;2023-09-19T06:25:12;100995.59;;;14.56;87.08
72921;BME280;61064;51.654;5.476;2023-09-19T06:27:44;101007.19;;;14.58;86.94
72921;BME280;61064;51.654;5.476;2023-09-19T06:30:10;101001.84;;;14.56;87.01
72921;BME280;61064;51.654;5.476;2023-09-19T06:32:40;101008.09;;;14.59;86.98
72921;BME280;61064;51.654;5.476;2023-09-19T06:35:08;101009.84;;;14.61;87.07
72921;BME280;61064;51.654;5.476;2023-09-19T06:37:39;101008.94;;;14.64;87.55
72921;BME280;61064;51.654;5.476;2023-09-19T06:40:09;101022.28;;;14.67;87.21
72921;BME280;61064;51.654;5.476;2023-09-19T06:42:43;101021.41;;;14.68;87.22
72921;BME280;61064;51.654;5.476;2023-09-19T06:45:10;101023.19;;;14.67;87.32
72921;BME280;61064;51.654;5.476;2023-09-19T06:47:43;101031.16;;;14.75;87.41
72921;BME280;61064;51.654;5.476;2023-09-19T06:50:09;101015.06;;;14.78;87.45
72921;BME280;61064;51.654;5.476;2023-09-19T06:52:39;101015.09;;;14.75;87.57
72921;BME280;61064;51.654;5.476;2023-09-19T06:55:05;101015.06;;;14.81;87.60
72921;BME280;61064;51.654;5.476;2023-09-19T06:57:31;101017.69;;;14.84;87.50
72921;BME280;61064;51.654;5.476;2023-09-19T06:59:57;101020.38;;;14.84;87.61
72921;BME280;61064;51.654;5.476;2023-09-19T07:02:22;101010.53;;;14.86;87.53
72921;BME280;61064;51.654;5.476;2023-09-19T07:04:48;101015.91;;;14.87;87.75
72921;BME280;61064;51.654;5.476;2023-09-19T07:07:15;101012.28;;;14.91;87.79
72921;BME280;61064;51.654;5.476;2023-09-19T07:09:40;101015.81;;;14.93;87.80
72921;BME280;61064;51.654;5.476;2023-09-19T07:12:07;101021.22;;;14.92;87.63
72921;BME280;61064;51.654;5.476;2023-09-19T07:14:33;101027.47;;;14.92;87.58
72921;BME280;61064;51.654;5.476;2023-09-19T07:16:58;101020.28;;;14.94;87.71
72921;BME280;61064;51.654;5.476;2023-09-19T07:19:25;101023.84;;;14.98;87.97
72921;BME280;61064;51.654;5.476;2023-09-19T07:21:53;101028.25;;;15.04;87.82
72921;BME280;61064;51.654;5.476;2023-09-19T07:24:18;101029.09;;;15.09;87.84
72921;BME280;61064;51.654;5.476;2023-09-19T07:26:45;101014.81;;;15.08;87.71
72921;BME280;61064;51.654;5.476;2023-09-19T07:29:10;101020.06;;;15.17;87.73
72921;BME280;61064;51.654;5.476;2023-09-19T07:31:36;101019.13;;;15.23;87.87
72921;BME280;61064;51.654;5.476;2023-09-19T07:34:01;101011.03;;;15.27;87.38
72921;BME280;61064;51.654;5.476;2023-09-19T07:36:29;101013.66;;;15.35;87.73
72921;BME280;61064;51.654;5.476;2023-09-19T07:38:54;101004.69;;;15.37;87.35
72921;BME280;61064;51.654;5.476;2023-09-19T07:41:20;101021.56;;;15.49;87.53
72921;BME280;61064;51.654;5.476;2023-09-19T07:43:46;101029.47;;;15.61;87.39
72921;BME280;61064;51.654;5.476;2023-09-19T07:46:12;101026.72;;;15.68;86.84
72921;BME280;61064;51.654;5.476;2023-09-19T07:48:37;101027.53;;;15.75;86.93
72921;BME280;61064;51.654;5.476;2023-09-19T07:51:05;101023.88;;;15.82;86.92
72921;BME280;61064;51.654;5.476;2023-09-19T07:53:31;101021.97;;;15.92;86.64
72921;BME280;61064;51.654;5.476;2023-09-19T07:56:07;101014.75;;;15.97;86.54
72921;BME280;61064;51.654;5.476;2023-09-19T07:58:33;101024.44;;;16.08;86.44
72921;BME280;61064;51.654;5.476;2023-09-19T08:01:06;101031.44;;;16.18;86.04
72921;BME280;61064;51.654;5.476;2023-09-19T08:03:32;101037.63;;;16.27;86.28
72921;BME280;61064;51.654;5.476;2023-09-19T08:05:57;101053.59;;;16.34;85.85
72921;BME280;61064;51.654;5.476;2023-09-19T08:08:27;101040.06;;;16.42;85.59
72921;BME280;61064;51.654;5.476;2023-09-19T08:10:56;101048.97;;;16.45;85.23
72921;BME280;61064;51.654;5.476;2023-09-19T08:13:25;101040.78;;;16.54;85.13
72921;BME280;61064;51.654;5.476;2023-09-19T08:15:53;101036.25;;;16.58;85.00
72921;BME280;61064;51.654;5.476;2023-09-19T08:18:19;101039.78;;;16.63;84.79
72921;BME280;61064;51.654;5.476;2023-09-19T08:20:50;101027.19;;;16.67;84.17
72921;BME280;61064;51.654;5.476;2023-09-19T08:23:16;101023.56;;;16.71;84.52
72921;BME280;61064;51.654;5.476;2023-09-19T08:25:43;101028.88;;;16.74;84.36
72921;BME280;61064;51.654;5.476;2023-09-19T08:28:09;101034.13;;;16.81;84.28
72921;BME280;61064;51.654;5.476;2023-09-19T08:30:37;101035.78;;;16.90;84.02
72921;BME280;61064;51.654;5.476;2023-09-19T08:33:03;101043.72;;;16.97;83.93
72921;BME280;61064;51.654;5.476;2023-09-19T08:35:30;101031.91;;;17.06;83.85
72921;BME280;61064;51.654;5.476;2023-09-19T08:37:55;101032.66;;;17.16;83.69
72921;BME280;61064;51.654;5.476;2023-09-19T08:40:21;101035.09;;;17.28;83.54
72921;BME280;61064;51.654;5.476;2023-09-19T08:42:48;101028.66;;;17.38;83.13
72921;BME280;61064;51.654;5.476;2023-09-19T08:45:14;101023.19;;;17.44;82.75
72921;BME280;61064;51.654;5.476;2023-09-19T08:47:46;101027.56;;;17.48;82.58
72921;BME280;61064;51.654;5.476;2023-09-19T08:50:24;101040.84;;;17.56;82.45
72921;BME280;61064;51.654;5.476;2023-09-19T08:52:51;101022.84;;;17.62;82.19
72921;BME280;61064;51.654;5.476;2023-09-19T08:55:23;101031.75;;;17.66;81.73
72921;BME280;61064;51.654;5.476;2023-09-19T08:57:52;101028.88;;;17.75;81.92
72921;BME280;61064;51.654;5.476;2023-09-19T09:00:27;101026.94;;;17.81;81.47
72921;BME280;61064;51.654;5.476;2023-09-19T09:02:54;101032.03;;;17.95;81.51
72921;BME280;61064;51.654;5.476;2023-09-19T09:05:20;101027.41;;;18.02;80.93
72921;BME280;61064;51.654;5.476;2023-09-19T09:07:49;101027.34;;;18.05;80.88
72921;BME280;61064;51.654;5.476;2023-09-19T09:10:17;101037.03;;;18.13;80.73
72921;BME280;61064;51.654;5.476;2023-09-19T09:12:42;101030.72;;;18.14;80.12
72921;BME280;61064;51.654;5.476;2023-09-19T09:15:09;101031.75;;;18.09;80.18
72921;BME280;61064;51.654;5.476;2023-09-19T09:17:37;101030.88;;;18.08;79.72
72921;BME280;61064;51.654;5.476;2023-09-19T09:20:03;101028.19;;;18.07;79.90
72921;BME280;61064;51.654;5.476;2023-09-19T09:22:30;101036.13;;;18.14;79.98
72921;BME280;61064;51.654;5.476;2023-09-19T09:24:57;101029.72;;;18.20;79.34
72921;BME280;61064;51.654;5.476;2023-09-19T09:27:30;101035.88;;;18.25;79.30
72921;BME280;61064;51.654;5.476;2023-09-19T09:29:57;101028.69;;;18.25;79.14
72921;BME280;61064;51.654;5.476;2023-09-19T09:32:25;100998.19;;;18.23;78.77
72921;BME280;61064;51.654;5.476;2023-09-19T09:34:55;100998.16;;;18.26;79.07
72921;BME280;61064;51.654;5.476;2023-09-19T09:37:22;101010.53;;;18.34;78.64
72921;BME280;61064;51.654;5.476;2023-09-19T09:42:34;101004.97;;;18.41;78.35
72921;BME280;61064;51.654;5.476;2023-09-19T09:45:25;101001.13;;;18.53;78.12
72921;BME280;61064;51.654;5.476;2023-09-19T09:48:03;101009.88;;;18.64;77.65
72921;BME280;61064;51.654;5.476;2023-09-19T09:50:35;101002.41;;;18.75;77.48
72921;BME280;61064;51.654;5.476;2023-09-19T09:53:23;101012.03;;;18.85;77.17
72921;BME280;61064;51.654;5.476;2023-09-19T09:56:08;101010.03;;;18.93;77.28
72921;BME280;61064;51.654;5.476;2023-09-19T09:58:36;101002.44;;;19.09;76.98
72921;BME280;61064;51.654;5.476;2023-09-19T10:01:02;100995.22;;;19.11;76.35
72921;BME280;61064;51.654;5.476;2023-09-19T10:03:39;101012.91;;;19.21;76.37
72921;BME280;61064;51.654;5.476;2023-09-19T10:06:14;101013.69;;;19.26;75.70
72921;BME280;61064;51.654;5.476;2023-09-19T10:12:03;101014.44;;;19.31;75.69
72921;BME280;61064;51.654;5.476;2023-09-19T10:14:33;101006.38;;;19.30;75.51
72921;BME280;61064;51.654;5.476;2023-09-19T10:17:04;100999.03;;;19.35;75.23
72921;BME280;61064;51.654;5.476;2023-09-19T10:19:36;101006.97;;;19.41;75.22
72921;BME280;61064;51.654;5.476;2023-09-19T10:22:04;100997.81;;;19.48;74.68
72921;BME280;61064;51.654;5.476;2023-09-19T10:24:33;100987.81;;;19.51;73.74
72921;BME280;61064;51.654;5.476;2023-09-19T10:27:01;100995.88;;;19.53;74.31
72921;BME280;61064;51.654;5.476;2023-09-19T10:29:29;101008.47;;;19.52;74.18
72921;BME280;61064;51.654;5.476;2023-09-19T10:31:58;100990.38;;;19.56;74.26
72921;BME280;61064;51.654;5.476;2023-09-19T10:34:25;101000.19;;;19.60;74.23
72921;BME280;61064;51.654;5.476;2023-09-19T10:36:52;100992.81;;;19.67;73.77
72921;BME280;61064;51.654;5.476;2023-09-19T10:39:19;100988.22;;;19.69;73.90
72921;BME280;61064;51.654;5.476;2023-09-19T10:41:50;100991.63;;;19.75;74.01
72921;BME280;61064;51.654;5.476;2023-09-19T10:44:23;100999.59;;;19.80;73.44
72921;BME280;61064;51.654;5.476;2023-09-19T10:46:52;101002.22;;;19.83;72.99
72921;BME280;61064;51.654;5.476;2023-09-19T10:49:22;101003.22;;;19.79;72.98
72921;BME280;61064;51.654;5.476;2023-09-19T10:51:53;100996.13;;;19.76;72.53
72921;BME280;61064;51.654;5.476;2023-09-19T10:54:22;100985.31;;;19.76;72.77
72921;BME280;61064;51.654;5.476;2023-09-19T10:56:52;100993.38;;;19.78;72.89
72921;BME280;61064;51.654;5.476;2023-09-19T10:59:20;100979.75;;;19.82;72.55
72921;BME280;61064;51.654;5.476;2023-09-19T11:01:53;100975.84;;;19.92;72.67
72921;BME280;61064;51.654;5.476;2023-09-19T11:04:29;100971.78;;;20.07;72.19
72921;BME280;61064;51.654;5.476;2023-09-19T11:07:08;100971.72;;;20.09;71.02
72921;BME280;61064;51.654;5.476;2023-09-19T11:09:54;100978.94;;;20.08;71.14
72921;BME280;61064;51.654;5.476;2023-09-19T11:26:44;100940.41;;;20.32;70.19
72921;BME280;61064;51.654;5.476;2023-09-19T11:29:25;100935.47;;;20.45;69.91
72921;BME280;61064;51.654;5.476;2023-09-19T11:31:51;100923.25;;;20.61;69.85
72921;BME280;61064;51.654;5.476;2023-09-19T11:37:00;100921.41;;;20.88;68.29
72921;BME280;61064;51.654;5.476;2023-09-19T11:39:32;100924.69;;;20.96;67.34
72921;BME280;61064;51.654;5.476;2023-09-19T11:42:00;100898.63;;;20.95;67.26
72921;BME280;61064;51.654;5.476;2023-09-19T11:44:33;100911.53;;;21.12;66.28
72921;BME280;61064;51.654;5.476;2023-09-19T11:47:00;100931.78;;;21.27;66.43
72921;BME280;61064;51.654;5.476;2023-09-19T11:49:30;100903.69;;;21.29;65.65
72921;BME280;61064;51.654;5.476;2023-09-19T11:51:57;100885.78;;;21.27;65.33
72921;BME280;61064;51.654;5.476;2023-09-19T11:54:27;100896.47;;;21.30;65.00
72921;BME280;61064;51.654;5.476;2023-09-19T11:56:58;100892.06;;;21.27;65.42
72921;BME280;61064;51.654;5.476;2023-09-19T11:59:26;100882.00;;;21.31;65.42
72921;BME280;61064;51.654;5.476;2023-09-19T12:01:57;100893.25;;;21.43;65.10
72921;BME280;61064;51.654;5.476;2023-09-19T12:04:34;100900.28;;;21.49;65.12
72921;BME280;61064;51.654;5.476;2023-09-19T12:07:13;100895.69;;;21.51;65.13
72921;BME280;61064;51.654;5.476;2023-09-19T12:09:43;100904.16;;;21.65;64.78
72921;BME280;61064;51.654;5.476;2023-09-19T12:12:19;100900.22;;;21.74;64.14
72921;BME280;61064;51.654;5.476;2023-09-19T12:14:51;100913.03;;;21.69;63.73
72921;BME280;61064;51.654;5.476;2023-09-19T12:17:17;100896.94;;;21.66;64.12
72921;BME280;61064;51.654;5.476;2023-09-19T12:19:50;100911.41;;;21.65;64.18
72921;BME280;61064;51.654;5.476;2023-09-19T12:22:16;100900.56;;;21.65;63.94
72921;BME280;61064;51.654;5.476;2023-09-19T12:24:43;100898.88;;;21.62;63.71
72921;BME280;61064;51.654;5.476;2023-09-19T12:27:09;100913.44;;;21.58;63.74
72921;BME280;61064;51.654;5.476;2023-09-19T12:29:47;100908.66;;;21.41;63.22
72921;BME280;61064;51.654;5.476;2023-09-19T12:32:34;100904.53;;;21.31;63.66
72921;BME280;61064;51.654;5.476;2023-09-19T12:34:59;100906.66;;;21.23;63.98
72921;BME280;61064;51.654;5.476;2023-09-19T12:37:24;100911.75;;;21.06;63.74
72921;BME280;61064;51.654;5.476;2023-09-19T12:40:04;100906.66;;;20.97;64.35
72921;BME280;61064;51.654;5.476;2023-09-19T12:42:40;100916.88;;;20.89;64.48
72921;BME280;61064;51.654;5.476;2023-09-19T12:45:07;100902.78;;;20.79;64.73
72921;BME280;61064;51.654;5.476;2023-09-19T12:47:34;100914.56;;;20.78;64.74
72921;BME280;61064;51.654;5.476;2023-09-19T12:52:49;100911.00;;;20.76;64.77
72921;BME280;61064;51.654;5.476;2023-09-19T12:55:29;100909.19;;;20.77;65.23
72921;BME280;61064;51.654;5.476;2023-09-19T12:58:12;100912.66;;;20.80;65.10
72921;BME280;61064;51.654;5.476;2023-09-19T13:00:39;100919.97;;;20.78;65.01
72921;BME280;61064;51.654;5.476;2023-09-19T13:06:12;100909.34;;;20.72;65.13
72921;BME280;61064;51.654;5.476;2023-09-19T13:08:42;100905.81;;;20.70;65.39
72921;BME280;61064;51.654;5.476;2023-09-19T13:11:12;100916.63;;;20.70;65.12
72921;BME280;61064;51.654;5.476;2023-09-19T13:13:51;100901.31;;;20.69;65.22
72921;BME280;61064;51.654;5.476;2023-09-19T13:16:27;100905.91;;;20.67;65.22
72921;BME280;61064;51.654;5.476;2023-09-19T13:18:55;100902.38;;;20.65;64.97
72921;BME280;61064;51.654;5.476;2023-09-19T13:21:34;100894.44;;;20.60;65.35
72921;BME280;61064;51.654;5.476;2023-09-19T13:24:20;100909.72;;;20.61;65.15
72921;BME280;61064;51.654;5.476;2023-09-19T13:26:46;100900.00;;;20.56;65.47
72921;BME280;61064;51.654;5.476;2023-09-19T13:29:11;100898.31;;;20.52;65.48
72921;BME280;61064;51.654;5.476;2023-09-19T13:31:37;100919.19;;;20.47;65.70
72921;BME280;61064;51.654;5.476;2023-09-19T13:34:06;100912.13;;;20.43;65.59